sensor_id;sensor_type;location;lat;lon;timestamp;P1;durP1;ratioP1;P2;durP2;ratioP2
43606;SDS011;29197;44.788;10.366;2023-09-07T00:00:31;5.07;;;4.50;;
43606;SDS011;29197;44.788;10.366;2023-09-07T00:03:20;4.03;;;3.42;;
43606;SDS011;29197;44.788;10.366;2023-09-07T00:06:10;4.15;;;3.72;;
43606;SDS011;29197;44.788;10.366;2023-09-07T00:08:58;3.30;;;3.00;;
43606;SDS011;29197;44.788;10.366;2023-09-07T00:11:47;5.55;;;3.60;;
43606;SDS011;29197;44.788;10.366;2023-09-07T00:14:37;5.32;;;4.07;;
43606;SDS011;29197;44.788;10.366;2023-09-07T00:17:25;7.22;;;4.75;;
43606;SDS011;29197;44.788;10.366;2023-09-07T00:20:14;6.22;;;5.07;;
43606;SDS011;29197;44.788;10.366;2023-09-07T00:23:03;7.57;;;4.18;;
43606;SDS011;29197;44.788;10.366;2023-09-07T00:25:52;4.95;;;4.43;;
43606;SDS011;29197;44.788;10.366;2023-09-07T00:28:40;4.47;;;3.72;;
43606;SDS011;29197;44.788;10.366;2023-09-07T00:31:30;7.53;;;4.68;;
43606;SDS011;29197;44.788;10.366;2023-09-07T00:34:19;7.40;;;4.30;;
43606;SDS011;29197;44.788;10.366;2023-09-07T00:37:08;5.60;;;4.75;;
43606;SDS011;29197;44.788;10.366;2023-09-07T00:39:57;5.00;;;4.45;;
43606;SDS011;29197;44.788;10.366;2023-09-07T00:42:56;9.93;;;5.15;;
43606;SDS011;29197;44.788;10.366;2023-09-07T00:45:45;5.38;;;4.78;;
43606;SDS011;29197;44.788;10.366;2023-09-07T00:48:35;10.32;;;5.68;;
43606;SDS011;29197;44.788;10.366;2023-09-07T00:51:24;5.75;;;5.10;;
43606;SDS011;29197;44.788;10.366;2023-09-07T00:54:13;4.57;;;4.18;;
43606;SDS011;29197;44.788;10.366;2023-09-07T00:57:02;5.13;;;3.75;;
43606;SDS011;29197;44.788;10.366;2023-09-07T00:59:51;5.68;;;5.00;;
43606;SDS011;29197;44.788;10.366;2023-09-07T01:02:39;7.32;;;4.70;;
43606;SDS011;29197;44.788;10.366;2023-09-07T01:05:32;4.97;;;4.50;;
43606;SDS011;29197;44.788;10.366;2023-09-07T01:08:29;6.93;;;3.70;;
43606;SDS011;29197;44.788;10.366;2023-09-07T01:11:22;6.95;;;3.97;;
43606;SDS011;29197;44.788;10.366;2023-09-07T01:14:11;7.30;;;4.13;;
43606;SDS011;29197;44.788;10.366;2023-09-07T01:17:00;5.18;;;3.42;;
43606;SDS011;29197;44.788;10.366;2023-09-07T01:19:49;7.18;;;4.40;;
43606;SDS011;29197;44.788;10.366;2023-09-07T01:22:40;7.03;;;5.13;;
43606;SDS011;29197;44.788;10.366;2023-09-07T01:25:29;7.85;;;5.38;;
43606;SDS011;29197;44.788;10.366;2023-09-07T01:28:18;3.95;;;3.45;;
43606;SDS011;29197;44.788;10.366;2023-09-07T01:31:08;6.18;;;4.53;;
43606;SDS011;29197;44.788;10.366;2023-09-07T01:33:57;5.05;;;4.13;;
43606;SDS011;29197;44.788;10.366;2023-09-07T01:36:46;6.15;;;4.47;;
43606;SDS011;29197;44.788;10.366;2023-09-07T01:39:36;5.47;;;3.90;;
43606;SDS011;29197;44.788;10.366;2023-09-07T01:42:24;5.55;;;3.70;;
43606;SDS011;29197;44.788;10.366;2023-09-07T01:45:13;6.50;;;3.67;;
43606;SDS011;29197;44.788;10.366;2023-09-07T01:48:02;8.40;;;3.70;;
43606;SDS011;29197;44.788;10.366;2023-09-07T01:50:53;4.43;;;3.28;;
43606;SDS011;29197;44.788;10.366;2023-09-07T01:53:42;7.00;;;4.22;;
43606;SDS011;29197;44.788;10.366;2023-09-07T01:56:32;6.93;;;3.63;;
43606;SDS011;29197;44.788;10.366;2023-09-07T01:59:21;4.30;;;3.30;;
43606;SDS011;29197;44.788;10.366;2023-09-07T02:02:10;4.22;;;3.33;;
43606;SDS011;29197;44.788;10.366;2023-09-07T02:04:58;3.80;;;3.40;;
43606;SDS011;29197;44.788;10.366;2023-09-07T02:07:47;6.18;;;4.30;;
43606;SDS011;29197;44.788;10.366;2023-09-07T02:10:36;4.50;;;3.88;;
43606;SDS011;29197;44.788;10.366;2023-09-07T02:13:27;4.22;;;3.75;;
43606;SDS011;29197;44.788;10.366;2023-09-07T02:16:16;5.00;;;3.80;;
43606;SDS011;29197;44.788;10.366;2023-09-07T02:19:05;4.28;;;3.88;;
43606;SDS011;29197;44.788;10.366;2023-09-07T02:21:54;3.80;;;3.40;;
43606;SDS011;29197;44.788;10.366;2023-09-07T02:24:43;6.25;;;5.60;;
43606;SDS011;29197;44.788;10.366;2023-09-07T02:27:31;9.13;;;5.70;;
43606;SDS011;29197;44.788;10.366;2023-09-07T02:30:22;8.60;;;4.13;;
43606;SDS011;29197;44.788;10.366;2023-09-07T02:33:11;4.80;;;3.80;;
43606;SDS011;29197;44.788;10.366;2023-09-07T02:35:59;4.43;;;3.63;;
43606;SDS011;29197;44.788;10.366;2023-09-07T02:38:48;6.68;;;4.43;;
43606;SDS011;29197;44.788;10.366;2023-09-07T02:41:37;6.00;;;4.38;;
43606;SDS011;29197;44.788;10.366;2023-09-07T02:44:26;4.43;;;3.95;;
43606;SDS011;29197;44.788;10.366;2023-09-07T02:47:17;5.78;;;3.92;;
43606;SDS011;29197;44.788;10.366;2023-09-07T02:50:05;4.63;;;3.65;;
43606;SDS011;29197;44.788;10.366;2023-09-07T02:52:54;4.88;;;3.78;;
43606;SDS011;29197;44.788;10.366;2023-09-07T02:55:43;4.68;;;4.25;;
43606;SDS011;29197;44.788;10.366;2023-09-07T02:58:32;4.93;;;4.18;;
43606;SDS011;29197;44.788;10.366;2023-09-07T03:01:21;5.80;;;4.68;;
43606;SDS011;29197;44.788;10.366;2023-09-07T03:04:11;5.68;;;4.68;;
43606;SDS011;29197;44.788;10.366;2023-09-07T03:07:00;6.53;;;4.45;;
43606;SDS011;29197;44.788;10.366;2023-09-07T03:09:51;4.63;;;4.13;;
43606;SDS011;29197;44.788;10.366;2023-09-07T03:12:40;5.22;;;4.05;;
43606;SDS011;29197;44.788;10.366;2023-09-07T03:15:29;4.90;;;4.40;;
43606;SDS011;29197;44.788;10.366;2023-09-07T03:18:17;8.13;;;4.32;;
43606;SDS011;29197;44.788;10.366;2023-09-07T03:21:08;5.40;;;4.88;;
43606;SDS011;29197;44.788;10.366;2023-09-07T03:23:57;5.78;;;4.50;;
43606;SDS011;29197;44.788;10.366;2023-09-07T03:26:46;5.53;;;4.93;;
43606;SDS011;29197;44.788;10.366;2023-09-07T03:29:34;5.80;;;4.05;;
43606;SDS011;29197;44.788;10.366;2023-09-07T03:32:23;5.85;;;4.07;;
43606;SDS011;29197;44.788;10.366;2023-09-07T03:35:13;5.10;;;4.20;;
43606;SDS011;29197;44.788;10.366;2023-09-07T03:38:03;4.53;;;4.05;;
43606;SDS011;29197;44.788;10.366;2023-09-07T03:40:52;6.40;;;3.83;;
43606;SDS011;29197;44.788;10.366;2023-09-07T03:43:41;10.57;;;4.85;;
43606;SDS011;29197;44.788;10.366;2023-09-07T03:46:31;5.28;;;4.38;;
43606;SDS011;29197;44.788;10.366;2023-09-07T03:49:19;5.07;;;4.10;;
43606;SDS011;29197;44.788;10.366;2023-09-07T03:52:09;9.25;;;4.93;;
43606;SDS011;29197;44.788;10.366;2023-09-07T03:54:59;7.60;;;4.38;;
43606;SDS011;29197;44.788;10.366;2023-09-07T03:57:49;8.23;;;4.80;;
43606;SDS011;29197;44.788;10.366;2023-09-07T04:00:38;5.38;;;4.00;;
43606;SDS011;29197;44.788;10.366;2023-09-07T04:03:28;7.97;;;5.35;;
43606;SDS011;29197;44.788;10.366;2023-09-07T04:06:17;5.97;;;5.35;;
43606;SDS011;29197;44.788;10.366;2023-09-07T04:09:06;6.18;;;4.78;;
43606;SDS011;29197;44.788;10.366;2023-09-07T04:11:56;4.38;;;3.70;;
43606;SDS011;29197;44.788;10.366;2023-09-07T04:14:45;5.82;;;4.50;;
43606;SDS011;29197;44.788;10.366;2023-09-07T04:17:34;5.68;;;5.03;;
43606;SDS011;29197;44.788;10.366;2023-09-07T04:20:27;7.85;;;4.28;;
43606;SDS011;29197;44.788;10.366;2023-09-07T04:23:16;6.05;;;4.25;;
43606;SDS011;29197;44.788;10.366;2023-09-07T04:26:06;6.60;;;4.93;;
43606;SDS011;29197;44.788;10.366;2023-09-07T04:28:56;4.43;;;3.92;;
43606;SDS011;29197;44.788;10.366;2023-09-07T04:31:45;6.82;;;4.80;;
43606;SDS011;29197;44.788;10.366;2023-09-07T04:34:34;5.47;;;4.82;;
43606;SDS011;29197;44.788;10.366;2023-09-07T04:37:23;5.78;;;5.18;;
43606;SDS011;29197;44.788;10.366;2023-09-07T04:40:12;7.38;;;4.80;;
43606;SDS011;29197;44.788;10.366;2023-09-07T04:43:00;6.18;;;4.10;;
43606;SDS011;29197;44.788;10.366;2023-09-07T04:45:50;7.10;;;4.15;;
43606;SDS011;29197;44.788;10.366;2023-09-07T04:48:39;4.53;;;3.67;;
43606;SDS011;29197;44.788;10.366;2023-09-07T04:51:29;4.90;;;3.28;;
43606;SDS011;29197;44.788;10.366;2023-09-07T04:54:17;5.32;;;3.72;;
43606;SDS011;29197;44.788;10.366;2023-09-07T04:57:06;4.40;;;3.55;;
43606;SDS011;29197;44.788;10.366;2023-09-07T04:59:55;7.03;;;3.58;;
43606;SDS011;29197;44.788;10.366;2023-09-07T05:02:45;7.47;;;3.40;;
43606;SDS011;29197;44.788;10.366;2023-09-07T05:05:34;5.13;;;4.28;;
43606;SDS011;29197;44.788;10.366;2023-09-07T05:08:23;4.00;;;3.60;;
43606;SDS011;29197;44.788;10.366;2023-09-07T05:11:12;3.90;;;3.13;;
43606;SDS011;29197;44.788;10.366;2023-09-07T05:14:01;6.30;;;3.67;;
43606;SDS011;29197;44.788;10.366;2023-09-07T05:16:49;5.95;;;3.10;;
43606;SDS011;29197;44.788;10.366;2023-09-07T05:19:40;9.30;;;3.50;;
43606;SDS011;29197;44.788;10.366;2023-09-07T05:22:30;3.78;;;2.80;;
43606;SDS011;29197;44.788;10.366;2023-09-07T05:25:23;3.67;;;3.38;;
43606;SDS011;29197;44.788;10.366;2023-09-07T05:28:12;5.03;;;3.20;;
43606;SDS011;29197;44.788;10.366;2023-09-07T05:31:01;3.75;;;2.78;;
43606;SDS011;29197;44.788;10.366;2023-09-07T05:33:50;5.25;;;3.67;;
43606;SDS011;29197;44.788;10.366;2023-09-07T05:36:41;2.78;;;2.50;;
43606;SDS011;29197;44.788;10.366;2023-09-07T05:39:30;4.70;;;3.25;;
43606;SDS011;29197;44.788;10.366;2023-09-07T05:42:19;4.82;;;3.50;;
43606;SDS011;29197;44.788;10.366;2023-09-07T05:45:07;4.60;;;3.13;;
43606;SDS011;29197;44.788;10.366;2023-09-07T05:47:56;4.55;;;3.20;;
43606;SDS011;29197;44.788;10.366;2023-09-07T05:50:45;7.43;;;3.13;;
43606;SDS011;29197;44.788;10.366;2023-09-07T05:53:36;6.88;;;3.05;;
43606;SDS011;29197;44.788;10.366;2023-09-07T05:56:25;5.50;;;3.40;;
43606;SDS011;29197;44.788;10.366;2023-09-07T05:59:14;5.35;;;3.40;;
43606;SDS011;29197;44.788;10.366;2023-09-07T06:02:02;4.93;;;3.58;;
43606;SDS011;29197;44.788;10.366;2023-09-07T06:04:51;3.88;;;3.15;;
43606;SDS011;29197;44.788;10.366;2023-09-07T06:07:40;6.57;;;4.43;;
43606;SDS011;29197;44.788;10.366;2023-09-07T06:10:30;11.07;;;4.05;;
43606;SDS011;29197;44.788;10.366;2023-09-07T06:13:19;7.53;;;3.88;;
43606;SDS011;29197;44.788;10.366;2023-09-07T06:16:08;5.82;;;3.47;;
43606;SDS011;29197;44.788;10.366;2023-09-07T06:18:57;7.07;;;3.90;;
43606;SDS011;29197;44.788;10.366;2023-09-07T06:21:46;6.60;;;4.15;;
43606;SDS011;29197;44.788;10.366;2023-09-07T06:24:35;9.07;;;4.45;;
43606;SDS011;29197;44.788;10.366;2023-09-07T06:27:25;5.90;;;3.90;;
43606;SDS011;29197;44.788;10.366;2023-09-07T06:30:14;5.95;;;3.00;;
43606;SDS011;29197;44.788;10.366;2023-09-07T06:33:03;5.85;;;4.25;;
43606;SDS011;29197;44.788;10.366;2023-09-07T06:35:52;4.93;;;3.53;;
43606;SDS011;29197;44.788;10.366;2023-09-07T06:38:42;5.47;;;3.10;;
43606;SDS011;29197;44.788;10.366;2023-09-07T06:41:31;6.50;;;3.85;;
43606;SDS011;29197;44.788;10.366;2023-09-07T06:44:21;4.40;;;3.63;;
43606;SDS011;29197;44.788;10.366;2023-09-07T06:47:10;6.20;;;3.63;;
43606;SDS011;29197;44.788;10.366;2023-09-07T06:49:59;3.88;;;3.03;;
43606;SDS011;29197;44.788;10.366;2023-09-07T06:52:48;4.53;;;3.38;;
43606;SDS011;29197;44.788;10.366;2023-09-07T06:55:38;12.00;;;4.28;;
43606;SDS011;29197;44.788;10.366;2023-09-07T06:58:26;7.30;;;3.03;;
43606;SDS011;29197;44.788;10.366;2023-09-07T07:01:17;6.50;;;3.15;;
43606;SDS011;29197;44.788;10.366;2023-09-07T07:04:06;4.32;;;3.33;;
43606;SDS011;29197;44.788;10.366;2023-09-07T07:06:55;5.53;;;3.95;;
43606;SDS011;29197;44.788;10.366;2023-09-07T07:09:44;5.63;;;2.72;;
43606;SDS011;29197;44.788;10.366;2023-09-07T07:12:33;5.35;;;3.42;;
43606;SDS011;29197;44.788;10.366;2023-09-07T07:15:21;7.10;;;4.93;;
43606;SDS011;29197;44.788;10.366;2023-09-07T07:18:11;5.50;;;3.30;;
43606;SDS011;29197;44.788;10.366;2023-09-07T07:21:00;5.53;;;2.80;;
43606;SDS011;29197;44.788;10.366;2023-09-07T07:23:49;3.97;;;3.05;;
43606;SDS011;29197;44.788;10.366;2023-09-07T07:26:38;5.18;;;3.70;;
43606;SDS011;29197;44.788;10.366;2023-09-07T07:29:27;6.10;;;3.33;;
43606;SDS011;29197;44.788;10.366;2023-09-07T07:32:19;3.60;;;2.88;;
43606;SDS011;29197;44.788;10.366;2023-09-07T07:35:09;3.92;;;3.03;;
43606;SDS011;29197;44.788;10.366;2023-09-07T07:37:58;5.05;;;3.22;;
43606;SDS011;29197;44.788;10.366;2023-09-07T07:40:46;3.80;;;3.00;;
43606;SDS011;29197;44.788;10.366;2023-09-07T07:43:36;4.97;;;3.20;;
43606;SDS011;29197;44.788;10.366;2023-09-07T07:46:25;5.90;;;3.20;;
43606;SDS011;29197;44.788;10.366;2023-09-07T07:49:14;9.20;;;4.40;;
43606;SDS011;29197;44.788;10.366;2023-09-07T07:52:04;4.40;;;3.30;;
43606;SDS011;29197;44.788;10.366;2023-09-07T07:54:53;5.03;;;3.78;;
43606;SDS011;29197;44.788;10.366;2023-09-07T07:57:42;8.27;;;3.85;;
43606;SDS011;29197;44.788;10.366;2023-09-07T08:00:30;4.18;;;3.10;;
43606;SDS011;29197;44.788;10.366;2023-09-07T08:03:19;7.10;;;3.50;;
43606;SDS011;29197;44.788;10.366;2023-09-07T08:06:08;8.13;;;4.53;;
43606;SDS011;29197;44.788;10.366;2023-09-07T08:08:58;5.07;;;3.72;;
43606;SDS011;29197;44.788;10.366;2023-09-07T08:11:48;6.10;;;4.07;;
43606;SDS011;29197;44.788;10.366;2023-09-07T08:14:38;4.07;;;3.30;;
43606;SDS011;29197;44.788;10.366;2023-09-07T08:17:27;4.95;;;3.30;;
43606;SDS011;29197;44.788;10.366;2023-09-07T08:20:16;4.07;;;3.38;;
43606;SDS011;29197;44.788;10.366;2023-09-07T08:23:05;3.15;;;2.67;;
43606;SDS011;29197;44.788;10.366;2023-09-07T08:25:58;6.40;;;3.50;;
43606;SDS011;29197;44.788;10.366;2023-09-07T08:28:47;7.25;;;4.13;;
43606;SDS011;29197;44.788;10.366;2023-09-07T08:31:36;3.88;;;3.13;;
43606;SDS011;29197;44.788;10.366;2023-09-07T08:34:25;4.72;;;3.50;;
43606;SDS011;29197;44.788;10.366;2023-09-07T08:37:14;3.97;;;2.60;;
43606;SDS011;29197;44.788;10.366;2023-09-07T08:40:04;4.47;;;3.20;;
43606;SDS011;29197;44.788;10.366;2023-09-07T08:42:56;5.03;;;3.90;;
43606;SDS011;29197;44.788;10.366;2023-09-07T08:45:46;3.47;;;3.17;;
43606;SDS011;29197;44.788;10.366;2023-09-07T08:48:35;4.43;;;3.20;;
43606;SDS011;29197;44.788;10.366;2023-09-07T08:51:25;8.88;;;2.75;;
43606;SDS011;29197;44.788;10.366;2023-09-07T08:54:15;5.22;;;2.75;;
43606;SDS011;29197;44.788;10.366;2023-09-07T08:57:04;4.15;;;3.25;;
43606;SDS011;29197;44.788;10.366;2023-09-07T08:59:55;3.90;;;2.90;;
43606;SDS011;29197;44.788;10.366;2023-09-07T09:02:45;6.90;;;3.90;;
43606;SDS011;29197;44.788;10.366;2023-09-07T09:05:38;3.20;;;2.60;;
43606;SDS011;29197;44.788;10.366;2023-09-07T09:08:28;5.75;;;3.65;;
43606;SDS011;29197;44.788;10.366;2023-09-07T09:11:17;5.57;;;3.60;;
43606;SDS011;29197;44.788;10.366;2023-09-07T09:14:07;5.75;;;3.70;;
43606;SDS011;29197;44.788;10.366;2023-09-07T09:16:57;9.00;;;4.68;;
43606;SDS011;29197;44.788;10.366;2023-09-07T09:19:46;3.40;;;2.55;;
43606;SDS011;29197;44.788;10.366;2023-09-07T09:22:35;5.55;;;3.72;;
43606;SDS011;29197;44.788;10.366;2023-09-07T09:25:24;4.30;;;2.92;;
43606;SDS011;29197;44.788;10.366;2023-09-07T09:28:13;5.45;;;3.28;;
43606;SDS011;29197;44.788;10.366;2023-09-07T09:31:02;3.55;;;2.88;;
43606;SDS011;29197;44.788;10.366;2023-09-07T09:33:52;3.25;;;2.80;;
43606;SDS011;29197;44.788;10.366;2023-09-07T09:36:41;3.38;;;2.85;;
43606;SDS011;29197;44.788;10.366;2023-09-07T09:39:31;6.22;;;2.88;;
43606;SDS011;29197;44.788;10.366;2023-09-07T09:42:20;6.50;;;3.63;;
43606;SDS011;29197;44.788;10.366;2023-09-07T09:45:09;3.42;;;2.83;;
43606;SDS011;29197;44.788;10.366;2023-09-07T09:47:58;4.40;;;3.17;;
43606;SDS011;29197;44.788;10.366;2023-09-07T09:50:49;4.35;;;2.78;;
43606;SDS011;29197;44.788;10.366;2023-09-07T09:53:38;4.38;;;3.55;;
43606;SDS011;29197;44.788;10.366;2023-09-07T09:56:27;5.95;;;3.38;;
43606;SDS011;29197;44.788;10.366;2023-09-07T09:59:15;5.07;;;2.88;;
43606;SDS011;29197;44.788;10.366;2023-09-07T10:02:05;5.88;;;2.70;;
43606;SDS011;29197;44.788;10.366;2023-09-07T10:04:54;4.00;;;2.58;;
43606;SDS011;29197;44.788;10.366;2023-09-07T10:07:47;4.07;;;2.78;;
43606;SDS011;29197;44.788;10.366;2023-09-07T10:10:37;3.50;;;2.55;;
43606;SDS011;29197;44.788;10.366;2023-09-07T10:13:30;4.20;;;3.25;;
43606;SDS011;29197;44.788;10.366;2023-09-07T10:16:20;4.38;;;3.30;;
43606;SDS011;29197;44.788;10.366;2023-09-07T10:19:15;3.33;;;2.70;;
43606;SDS011;29197;44.788;10.366;2023-09-07T10:22:05;6.30;;;3.65;;
43606;SDS011;29197;44.788;10.366;2023-09-07T10:24:58;4.45;;;2.63;;
43606;SDS011;29197;44.788;10.366;2023-09-07T10:27:46;4.25;;;2.97;;
43606;SDS011;29197;44.788;10.366;2023-09-07T10:30:35;4.93;;;2.75;;
43606;SDS011;29197;44.788;10.366;2023-09-07T10:33:24;4.43;;;2.83;;
43606;SDS011;29197;44.788;10.366;2023-09-07T10:36:22;3.45;;;2.38;;
43606;SDS011;29197;44.788;10.366;2023-09-07T10:39:11;7.82;;;3.65;;
43606;SDS011;29197;44.788;10.366;2023-09-07T10:42:05;5.38;;;3.10;;
43606;SDS011;29197;44.788;10.366;2023-09-07T10:44:54;3.08;;;2.03;;
43606;SDS011;29197;44.788;10.366;2023-09-07T10:47:43;3.22;;;2.60;;
43606;SDS011;29197;44.788;10.366;2023-09-07T10:50:41;4.10;;;2.58;;
43606;SDS011;29197;44.788;10.366;2023-09-07T10:53:31;3.83;;;2.83;;
43606;SDS011;29197;44.788;10.366;2023-09-07T10:56:20;4.82;;;2.67;;
43606;SDS011;29197;44.788;10.366;2023-09-07T10:59:14;6.20;;;2.40;;
43606;SDS011;29197;44.788;10.366;2023-09-07T11:02:04;3.88;;;2.83;;
43606;SDS011;29197;44.788;10.366;2023-09-07T11:04:53;3.13;;;2.65;;
43606;SDS011;29197;44.788;10.366;2023-09-07T11:07:42;3.45;;;2.60;;
43606;SDS011;29197;44.788;10.366;2023-09-07T11:10:31;2.95;;;2.20;;
43606;SDS011;29197;44.788;10.366;2023-09-07T11:13:21;3.00;;;2.47;;
43606;SDS011;29197;44.788;10.366;2023-09-07T11:16:11;6.68;;;3.17;;
43606;SDS011;29197;44.788;10.366;2023-09-07T11:19:03;5.57;;;2.70;;
43606;SDS011;29197;44.788;10.366;2023-09-07T11:24:58;5.20;;;2.58;;
43606;SDS011;29197;44.788;10.366;2023-09-07T11:27:48;2.72;;;2.30;;
43606;SDS011;29197;44.788;10.366;2023-09-07T11:30:36;5.15;;;2.60;;
43606;SDS011;29197;44.788;10.366;2023-09-07T11:33:30;4.13;;;2.45;;
43606;SDS011;29197;44.788;10.366;2023-09-07T11:36:20;4.82;;;2.63;;
43606;SDS011;29197;44.788;10.366;2023-09-07T11:39:11;4.72;;;2.50;;
43606;SDS011;29197;44.788;10.366;2023-09-07T11:42:00;2.70;;;2.17;;
43606;SDS011;29197;44.788;10.366;2023-09-07T11:44:48;6.38;;;2.42;;
43606;SDS011;29197;44.788;10.366;2023-09-07T11:47:37;2.85;;;2.10;;
43606;SDS011;29197;44.788;10.366;2023-09-07T11:50:27;3.38;;;2.95;;
43606;SDS011;29197;44.788;10.366;2023-09-07T11:53:17;3.42;;;2.13;;
43606;SDS011;29197;44.788;10.366;2023-09-07T11:56:05;3.50;;;2.85;;
43606;SDS011;29197;44.788;10.366;2023-09-07T11:58:54;2.40;;;2.20;;
43606;SDS011;29197;44.788;10.366;2023-09-07T12:01:43;3.78;;;2.50;;
43606;SDS011;29197;44.788;10.366;2023-09-07T12:04:32;3.00;;;2.28;;
43606;SDS011;29197;44.788;10.366;2023-09-07T12:07:28;2.70;;;2.50;;
43606;SDS011;29197;44.788;10.366;2023-09-07T12:10:17;2.97;;;2.42;;
43606;SDS011;29197;44.788;10.366;2023-09-07T12:13:06;3.67;;;2.60;;
43606;SDS011;29197;44.788;10.366;2023-09-07T12:15:55;6.75;;;3.10;;
43606;SDS011;29197;44.788;10.366;2023-09-07T12:18:44;2.75;;;2.45;;
43606;SDS011;29197;44.788;10.366;2023-09-07T12:21:33;2.90;;;2.30;;
43606;SDS011;29197;44.788;10.366;2023-09-07T12:24:23;3.42;;;3.00;;
43606;SDS011;29197;44.788;10.366;2023-09-07T12:27:11;3.15;;;2.40;;
43606;SDS011;29197;44.788;10.366;2023-09-07T12:30:00;2.22;;;2.03;;
43606;SDS011;29197;44.788;10.366;2023-09-07T12:32:53;3.60;;;2.20;;
43606;SDS011;29197;44.788;10.366;2023-09-07T12:35:42;3.70;;;3.15;;
43606;SDS011;29197;44.788;10.366;2023-09-07T12:38:30;4.75;;;2.60;;
43606;SDS011;29197;44.788;10.366;2023-09-07T12:41:20;4.10;;;2.55;;
43606;SDS011;29197;44.788;10.366;2023-09-07T12:44:09;4.60;;;2.40;;
43606;SDS011;29197;44.788;10.366;2023-09-07T12:46:59;3.20;;;2.75;;
43606;SDS011;29197;44.788;10.366;2023-09-07T12:49:48;2.78;;;2.13;;
43606;SDS011;29197;44.788;10.366;2023-09-07T12:52:37;2.45;;;2.25;;
43606;SDS011;29197;44.788;10.366;2023-09-07T12:55:25;2.83;;;1.80;;
43606;SDS011;29197;44.788;10.366;2023-09-07T12:58:17;2.92;;;2.55;;
43606;SDS011;29197;44.788;10.366;2023-09-07T13:01:07;2.35;;;2.13;;
43606;SDS011;29197;44.788;10.366;2023-09-07T13:03:57;2.80;;;1.98;;
43606;SDS011;29197;44.788;10.366;2023-09-07T13:06:45;5.97;;;2.08;;
43606;SDS011;29197;44.788;10.366;2023-09-07T13:09:34;6.10;;;2.17;;
43606;SDS011;29197;44.788;10.366;2023-09-07T13:12:22;3.65;;;2.50;;
43606;SDS011;29197;44.788;10.366;2023-09-07T13:15:13;5.85;;;2.72;;
43606;SDS011;29197;44.788;10.366;2023-09-07T13:18:01;5.85;;;2.47;;
43606;SDS011;29197;44.788;10.366;2023-09-07T13:20:50;3.60;;;1.67;;
43606;SDS011;29197;44.788;10.366;2023-09-07T13:23:42;3.58;;;2.60;;
43606;SDS011;29197;44.788;10.366;2023-09-07T13:26:30;3.63;;;2.08;;
43606;SDS011;29197;44.788;10.366;2023-09-07T13:29:19;3.95;;;2.20;;
43606;SDS011;29197;44.788;10.366;2023-09-07T13:32:09;2.60;;;2.20;;
43606;SDS011;29197;44.788;10.366;2023-09-07T13:34:58;3.42;;;2.40;;
43606;SDS011;29197;44.788;10.366;2023-09-07T13:37:46;5.70;;;1.98;;
43606;SDS011;29197;44.788;10.366;2023-09-07T13:40:35;5.68;;;2.78;;
43606;SDS011;29197;44.788;10.366;2023-09-07T13:43:23;5.22;;;2.38;;
43606;SDS011;29197;44.788;10.366;2023-09-07T13:46:12;4.72;;;2.47;;
43606;SDS011;29197;44.788;10.366;2023-09-07T13:49:02;3.53;;;2.00;;
43606;SDS011;29197;44.788;10.366;2023-09-07T13:51:51;3.15;;;1.88;;
43606;SDS011;29197;44.788;10.366;2023-09-07T13:54:40;2.15;;;1.95;;
43606;SDS011;29197;44.788;10.366;2023-09-07T13:57:29;4.57;;;2.40;;
43606;SDS011;29197;44.788;10.366;2023-09-07T14:00:17;3.17;;;1.92;;
43606;SDS011;29197;44.788;10.366;2023-09-07T14:03:06;1.98;;;1.70;;
43606;SDS011;29197;44.788;10.366;2023-09-07T14:05:56;2.05;;;1.80;;
43606;SDS011;29197;44.788;10.366;2023-09-07T14:08:45;1.77;;;1.67;;
43606;SDS011;29197;44.788;10.366;2023-09-07T14:11:35;2.17;;;1.98;;
43606;SDS011;29197;44.788;10.366;2023-09-07T14:14:24;2.30;;;2.00;;
43606;SDS011;29197;44.788;10.366;2023-09-07T14:17:13;1.70;;;1.60;;
43606;SDS011;29197;44.788;10.366;2023-09-07T14:20:02;2.40;;;2.00;;
43606;SDS011;29197;44.788;10.366;2023-09-07T14:22:53;2.45;;;2.13;;
43606;SDS011;29197;44.788;10.366;2023-09-07T14:25:43;4.35;;;1.88;;
43606;SDS011;29197;44.788;10.366;2023-09-07T14:28:32;5.18;;;2.45;;
43606;SDS011;29197;44.788;10.366;2023-09-07T14:31:21;3.20;;;2.00;;
43606;SDS011;29197;44.788;10.366;2023-09-07T14:34:11;1.90;;;1.70;;
43606;SDS011;29197;44.788;10.366;2023-09-07T14:37:00;2.75;;;2.40;;
43606;SDS011;29197;44.788;10.366;2023-09-07T14:39:51;2.92;;;2.42;;
43606;SDS011;29197;44.788;10.366;2023-09-07T14:42:44;2.60;;;2.22;;
43606;SDS011;29197;44.788;10.366;2023-09-07T14:45:33;3.00;;;2.10;;
43606;SDS011;29197;44.788;10.366;2023-09-07T14:48:22;3.75;;;2.35;;
43606;SDS011;29197;44.788;10.366;2023-09-07T14:51:10;3.75;;;2.20;;
43606;SDS011;29197;44.788;10.366;2023-09-07T14:53:59;3.38;;;2.20;;
43606;SDS011;29197;44.788;10.366;2023-09-07T14:56:49;2.20;;;2.00;;
43606;SDS011;29197;44.788;10.366;2023-09-07T14:59:38;4.05;;;2.15;;
43606;SDS011;29197;44.788;10.366;2023-09-07T15:02:27;4.00;;;2.45;;
43606;SDS011;29197;44.788;10.366;2023-09-07T15:05:15;2.85;;;2.42;;
43606;SDS011;29197;44.788;10.366;2023-09-07T15:08:04;3.58;;;2.53;;
43606;SDS011;29197;44.788;10.366;2023-09-07T15:10:53;3.33;;;2.13;;
43606;SDS011;29197;44.788;10.366;2023-09-07T15:13:43;4.05;;;2.10;;
43606;SDS011;29197;44.788;10.366;2023-09-07T15:16:32;3.72;;;2.08;;
43606;SDS011;29197;44.788;10.366;2023-09-07T15:19:21;3.13;;;2.05;;
43606;SDS011;29197;44.788;10.366;2023-09-07T15:22:09;4.88;;;2.40;;
43606;SDS011;29197;44.788;10.366;2023-09-07T15:24:58;6.10;;;2.25;;
43606;SDS011;29197;44.788;10.366;2023-09-07T15:27:47;2.92;;;2.30;;
43606;SDS011;29197;44.788;10.366;2023-09-07T15:30:37;2.53;;;2.13;;
43606;SDS011;29197;44.788;10.366;2023-09-07T15:33:26;2.70;;;2.35;;
43606;SDS011;29197;44.788;10.366;2023-09-07T15:36:15;3.03;;;2.40;;
43606;SDS011;29197;44.788;10.366;2023-09-07T15:39:04;3.08;;;1.95;;
43606;SDS011;29197;44.788;10.366;2023-09-07T15:41:53;3.88;;;3.15;;
43606;SDS011;29197;44.788;10.366;2023-09-07T15:44:42;2.00;;;1.80;;
43606;SDS011;29197;44.788;10.366;2023-09-07T15:47:35;4.78;;;2.53;;
43606;SDS011;29197;44.788;10.366;2023-09-07T15:50:24;2.72;;;2.03;;
43606;SDS011;29197;44.788;10.366;2023-09-07T15:53:13;6.80;;;2.67;;
43606;SDS011;29197;44.788;10.366;2023-09-07T15:56:02;3.25;;;2.33;;
43606;SDS011;29197;44.788;10.366;2023-09-07T15:58:52;3.53;;;2.33;;
43606;SDS011;29197;44.788;10.366;2023-09-07T16:01:41;7.68;;;2.50;;
43606;SDS011;29197;44.788;10.366;2023-09-07T16:04:31;2.47;;;2.28;;
43606;SDS011;29197;44.788;10.366;2023-09-07T16:07:20;2.65;;;2.25;;
43606;SDS011;29197;44.788;10.366;2023-09-07T16:10:09;4.03;;;2.53;;
43606;SDS011;29197;44.788;10.366;2023-09-07T16:12:59;4.90;;;2.53;;
43606;SDS011;29197;44.788;10.366;2023-09-07T16:15:48;2.67;;;2.47;;
43606;SDS011;29197;44.788;10.366;2023-09-07T16:18:37;4.47;;;2.60;;
43606;SDS011;29197;44.788;10.366;2023-09-07T16:21:27;3.05;;;2.13;;
43606;SDS011;29197;44.788;10.366;2023-09-07T16:24:17;4.38;;;2.33;;
43606;SDS011;29197;44.788;10.366;2023-09-07T16:27:06;4.70;;;2.30;;
43606;SDS011;29197;44.788;10.366;2023-09-07T16:29:55;3.92;;;2.60;;
43606;SDS011;29197;44.788;10.366;2023-09-07T16:32:44;3.15;;;2.28;;
43606;SDS011;29197;44.788;10.366;2023-09-07T16:35:33;3.28;;;2.33;;
43606;SDS011;29197;44.788;10.366;2023-09-07T16:38:23;5.78;;;2.42;;
43606;SDS011;29197;44.788;10.366;2023-09-07T16:41:12;2.72;;;2.15;;
43606;SDS011;29197;44.788;10.366;2023-09-07T16:44:01;3.47;;;2.50;;
43606;SDS011;29197;44.788;10.366;2023-09-07T16:46:50;3.03;;;2.13;;